Latest Weather Observations for Avalon

IDV60801

Issued at 3:02 pm EST Friday 28 August 2015 (issued every 30 minutes, with the page automatically refreshed every 10 minutes)

About weather observations | Map of weather stations | Latest weather observations for VIC | Other Formats
Station Details ID: 087113 Name: AVALON AIRPORT Lat: -38.03 Lon: 144.48 Height: 10.6 m
Data from the previous 72 hours. | See also: Recent months at Avalon
Date/Time
EST
Temp
°C
App
Temp
°C
Dew
Point
Rel
Hum
%
Delta-T
°C
Wind Press
QNH
hPa
Press
MSL
hPa
Rain
since 9 am
mm
Dir
 
Spd
km/h
Gust
km/h
Spd
kts
Gust
kts
28/03:00pm 11.5 4.2 5.6 67 2.7 SSW 33 43 18 23 1025.4 1025.4 0.0
28/02:30pm 12.6 5.5 6.6 67 2.8 S 33 41 18 22 1025.3 1025.3 0.0
28/02:00pm 13.5 6.7 7.1 65 3.1 SSW 32 39 17 21 1025.2 1025.2 0.0
28/01:30pm 13.2 6.7 8.1 71 2.5 S 32 41 17 22 1025.2 1025.2 0.0
28/01:00pm 13.4 7.1 7.6 68 2.8 SSW 30 37 16 20 1025.4 1025.4 0.0
28/12:30pm 14.3 8.9 7.8 65 3.2 SSW 26 35 14 19 1025.8 1025.8 0.0
28/12:00pm 13.1 7.7 6.2 63 3.3 SSW 24 32 13 17 1026.2 1026.2 0.0
28/11:30am 13.6 8.2 6.2 61 3.5 SSW 24 32 13 17 1026.4 1026.4 0.0
28/11:00am 11.9 6.0 6.0 67 2.7 SSW 26 35 14 19 1026.5 1026.5 0.0
28/10:30am 11.7 7.3 6.6 71 2.4 WSW 19 24 10 13 1026.5 1026.5 0.0
28/10:00am 12.3 8.3 6.8 69 2.6 WSW 17 24 9 13 1026.5 1026.5 0.0
28/09:30am 10.5 6.7 7.7 83 1.3 WSW 17 20 9 11 1026.4 1026.4 0.0
28/09:00am 9.6 5.7 8.5 93 0.5 W 19 22 10 12 1026.2 1026.2 0.2
28/08:30am 9.0 4.8 8.1 94 0.4 W 20 24 11 13 1026.1 1026.1 0.2
28/08:00am 8.3 5.0 8.0 98 0.1 W 15 20 8 11 1026.0 1026.0 0.2
28/07:30am 7.8 4.0 7.5 98 0.1 W 17 20 9 11 1025.7 1025.7 0.2
28/07:00am 7.6 4.1 7.3 98 0.1 W 15 20 8 11 1025.4 1025.4 0.2
28/06:30am 7.3 3.7 6.7 96 0.3 W 15 19 8 10 1025.3 1025.3 0.2
28/06:00am 7.2 3.9 6.3 94 0.4 W 13 19 7 10 1025.1 1025.1 0.0
28/05:30am 7.8 4.2 6.7 93 0.5 W 15 20 8 11 1024.9 1024.9 0.0
28/05:00am 8.0 4.4 6.9 93 0.5 W 15 20 8 11 1024.6 1024.6 0.0
28/04:30am 7.3 3.5 5.8 90 0.7 W 15 19 8 10 1024.4 1024.4 0.0
28/04:00am 8.6 4.7 6.9 89 0.8 WSW 17 22 9 12 1024.4 1024.4 0.0
28/03:30am 8.2 4.6 6.8 91 0.6 W 15 17 8 9 1024.2 1024.2 0.0
28/03:00am 8.8 5.6 6.9 88 0.9 W 13 17 7 9 1024.4 1024.4 0.0
28/02:30am 9.0 5.9 7.1 88 0.9 WSW 13 17 7 9 1024.5 1024.5 0.0
28/02:00am 8.7 5.4 6.5 86 1.0 W 13 20 7 11 1024.6 1024.6 0.0
28/01:30am 9.1 5.4 6.5 84 1.2 SW 15 19 8 10 1024.5 1024.5 0.0
28/01:00am 8.5 4.8 6.1 85 1.1 WSW 15 19 8 10 1024.4 1024.4 0.0
28/12:30am 8.8 5.1 6.4 85 1.1 WSW 15 17 8 9 1024.3 1024.3 0.0
28/12:00am 9.3 4.7 6.7 84 1.2 SW 20 26 11 14 1024.2 1024.2 0.0
 
Date/Time
EST
Temp
°C
App
Temp
°C
Dew
Point
Rel
Hum
%
Delta-T
°C
Wind Press
QNH
hPa
Press
MSL
hPa
Rain
since 9 am
mm
Dir
 
Spd
km/h
Gust
km/h
Spd
kts
Gust
kts
27/11:30pm 9.4 5.1 7.2 86 1.0 SSW 19 24 10 13 1024.2 1024.2 0.0
27/11:00pm 10.2 5.4 7.4 83 1.3 SSW 22 30 12 16 1024.1 1024.1 0.0
27/10:30pm 10.9 5.5 7.8 81 1.5 SSW 26 33 14 18 1024.0 1024.0 0.0
27/10:00pm 11.1 6.7 8.8 86 1.1 SSW 22 28 12 15 1023.8 1023.8 0.0
27/09:30pm 11.0 5.7 8.6 85 1.2 SSW 26 32 14 17 1023.6 1023.6 0.0
27/09:00pm 11.2 6.1 9.1 87 1.0 S 26 35 14 19 1023.4 1023.4 0.0
27/08:30pm 11.1 6.9 9.7 91 0.7 S 22 30 12 16 1023.1 1023.1 0.0
27/08:08pm 11.1 6.2 9.9 92 0.6 S 26 33 14 18 1023.1 1023.1 0.0
27/08:00pm 11.2 5.6 10.1 93 0.6 S 30 35 16 19 1022.9 1022.9 0.0
27/07:47pm 11.6 6.8 10.3 92 0.7 SSW 26 32 14 17 1022.8 1022.8 0.0
27/07:30pm 11.4 8.0 10.6 95 0.4 SSW 19 26 10 14 1022.6 1022.6 0.0
27/07:26pm 11.3 8.2 10.4 94 0.5 SSW 17 26 9 14 1022.5 1022.5 0.0
27/07:00pm 11.5 8.1 10.6 94 0.5 SSW 19 26 10 14 1022.2 1022.2 0.0
27/06:52pm 11.5 8.1 10.4 93 0.6 SSW 19 24 10 13 1022.1 1022.1 0.0
27/06:30pm 11.5 7.3 9.9 90 0.8 SSW 22 28 12 15 1021.9 1021.9 0.0
27/06:00pm 11.9 7.8 10.1 89 0.9 SSW 22 28 12 15 1021.3 1021.3 0.0
27/05:30pm 12.0 7.5 9.9 87 1.1 SSW 24 32 13 17 1020.9 1020.9 0.0
27/05:00pm 12.3 7.4 10.0 86 1.2 SSW 26 32 14 17 1020.7 1020.7 0.0
27/04:30pm 12.6 8.2 10.3 86 1.2 SSW 24 32 13 17 1020.5 1020.5 0.0
27/04:00pm 12.9 8.4 10.1 83 1.4 SSW 24 30 13 16 1020.5 1020.5 0.0
27/03:30pm 12.9 8.7 9.9 82 1.5 SSW 22 28 12 15 1020.3 1020.3 0.0
27/03:00pm 13.1 8.6 9.9 81 1.6 SSW 24 30 13 16 1020.2 1020.2 0.0
27/02:30pm 13.1 8.6 9.9 81 1.6 SSW 24 30 13 16 1020.1 1020.1 0.0
27/02:00pm 13.1 9.5 9.9 81 1.6 SW 19 24 10 13 1020.3 1020.3 0.0
27/01:30pm 12.6 9.3 9.6 82 1.5 WSW 17 20 9 11 1020.5 1020.5 0.0
27/01:00pm 12.4 9.1 9.6 83 1.4 WSW 17 20 9 11 1020.9 1020.9 0.0
27/12:30pm 12.0 8.6 9.2 83 1.4 W 17 20 9 11 1021.1 1021.1 0.0
27/12:00pm 11.9 8.4 8.9 82 1.5 W 17 24 9 13 1021.3 1021.3 0.0
27/11:30am 11.3 7.3 8.3 82 1.5 W 19 24 10 13 1021.5 1021.5 0.0
27/11:00am 11.4 7.5 8.6 83 1.4 W 19 24 10 13 1021.4 1021.4 0.0
27/10:30am 10.8 7.2 8.2 84 1.3 W 17 20 9 11 1021.7 1021.7 0.0
27/10:00am 10.6 7.8 8.5 87 1.0 W 13 17 7 9 1021.8 1021.8 0.0
27/09:30am 9.9 6.8 8.7 92 0.6 W 15 19 8 10 1021.9 1021.9 0.0
27/09:00am 9.0 5.8 8.4 96 0.3 WNW 15 19 8 10 1022.1 1022.1 0.0
27/08:30am 8.4 5.9 8.0 97 0.2 WSW 11 15 6 8 1022.1 1022.1 0.0
27/08:00am 8.3 5.3 7.9 97 0.2 W 13 20 7 11 1021.9 1021.9 0.0
27/07:30am 7.9 6.0 7.6 98 0.1 WNW 7 11 4 6 1021.5 1021.5 0.0
27/07:00am 7.6 4.9 7.2 97 0.2 WNW 11 13 6 7 1021.1 1021.1 0.0
27/06:30am 7.6 5.6 7.2 97 0.2 W 7 9 4 5 1021.0 1021.0 0.0
27/06:00am 7.4 5.0 7.0 97 0.2 WNW 9 13 5 7 1020.9 1020.9 0.0
27/05:30am 7.1 3.9 6.7 97 0.2 WNW 13 15 7 8 1020.8 1020.8 0.0
27/05:00am 6.7 3.3 6.1 96 0.3 WNW 13 13 7 7 1020.5 1020.5 0.0
27/04:30am 7.3 4.4 6.7 96 0.3 WNW 11 13 6 7 1020.8 1020.8 0.0
27/04:00am 6.6 4.9 5.9 95 0.3 NW 4 11 2 6 1020.7 1020.7 0.0
27/03:30am 7.4 6.6 6.7 95 0.3 CALM 0 0 0 0 1020.8 1020.8 0.0
27/03:00am 7.2 4.7 6.5 95 0.3 WNW 9 11 5 6 1021.0 1021.0 0.0
27/02:30am 7.4 5.5 6.5 94 0.4 WNW 6 7 3 4 1021.2 1021.2 0.0
27/02:00am 7.8 5.0 7.1 95 0.3 WNW 11 13 6 7 1021.5 1021.5 0.0
27/01:30am 8.2 7.6 7.4 95 0.4 CALM 0 0 0 0 1021.9 1021.9 0.0
27/01:00am 8.5 8.0 7.9 96 0.3 CALM 0 0 0 0 1022.2 1022.2 0.0
27/12:30am 7.9 5.9 7.0 94 0.4 NW 7 9 4 5 1022.4 1022.4 0.0
27/12:00am 7.9 5.9 7.0 94 0.4 NW 7 9 4 5 1022.4 1022.4 0.0
 
Date/Time
EST
Temp
°C
App
Temp
°C
Dew
Point
Rel
Hum
%
Delta-T
°C
Wind Press
QNH
hPa
Press
MSL
hPa
Rain
since 9 am
mm
Dir
 
Spd
km/h
Gust
km/h
Spd
kts
Gust
kts
26/11:30pm 8.1 5.4 7.2 94 0.4 WNW 11 13 6 7 1022.7 1022.7 0.0
26/11:00pm 8.6 6.9 7.5 93 0.5 NW 6 7 3 4 1023.1 1023.1 0.0
26/10:30pm 8.8 6.6 7.7 93 0.5 WNW 9 9 5 5 1023.3 1023.3 0.0
26/10:00pm 9.3 7.6 8.4 94 0.4 WNW 7 7 4 4 1023.5 1023.5 0.0
26/09:30pm 9.7 7.6 8.3 91 0.7 WSW 9 11 5 6 1023.4 1023.4 0.0
26/09:00pm 10.3 8.8 8.6 89 0.8 SW 6 9 3 5 1023.4 1023.4 0.0
26/08:30pm 10.3 9.0 7.5 83 1.3 WSW 4 7 2 4 1023.6 1023.6 0.0
26/08:00pm 10.4 8.4 7.3 81 1.5 W 7 9 4 5 1023.5 1023.5 0.0
26/07:30pm 10.7 8.3 7.2 79 1.7 W 9 11 5 6 1023.4 1023.4 0.0
26/07:00pm 10.9 9.2 7.6 80 1.6 SW 6 7 3 4 1023.3 1023.3 0.0
26/06:30pm 10.5 8.2 7.4 81 1.5 SSW 9 9 5 5 1023.2 1023.2 0.0
26/06:00pm 11.5 9.7 7.0 74 2.1 SSE 6 6 3 3 1023.2 1023.2 0.0
26/05:30pm 12.2 10.2 6.9 70 2.5 SSE 7 9 4 5 1022.8 1022.8 0.0
26/05:00pm 12.9 11.0 6.5 65 3.0 SSE 6 9 3 5 1022.7 1022.7 0.0
26/04:30pm 13.4 12.4 5.8 60 3.6 CALM 0 0 0 0 1022.7 1022.7 0.0
26/04:00pm 13.6 12.1 5.0 56 4.0 SSE 2 6 1 3 1023.0 1023.0 0.0
26/03:30pm 13.4 10.5 4.8 56 4.0 ESE 9 13 5 7 1023.1 1023.1 0.0
26/03:00pm 13.4 10.2 5.1 57 3.8 ESE 11 13 6 7 1023.2 1023.2 0.0
26/02:30pm 13.6 10.2 5.7 59 3.7 ESE 13 17 7 9 1023.3 1023.3 0.0
26/02:00pm 13.3 10.0 6.2 62 3.4 ESE 13 17 7 9 1023.4 1023.4 0.0
26/01:30pm 13.1 10.0 7.1 67 2.9 ESE 13 15 7 8 1023.6 1023.6 0.0
26/01:00pm 13.1 10.3 8.4 73 2.3 ESE 13 17 7 9 1024.0 1024.0 0.0
26/12:30pm 12.3 9.0 8.0 75 2.1 SE 15 17 8 9 1024.4 1024.4 0.0
26/12:00pm 13.0 11.7 7.7 70 2.6 SE 4 7 2 4 1025.2 1025.2 0.0
26/11:30am 12.1 10.7 7.2 72 2.4 NNW 4 9 2 5 1025.6 1025.6 0.0
26/11:00am 11.4 9.6 7.3 76 2.0 N 6 7 3 4 1025.9 1025.9 0.0
26/10:30am 11.1 9.2 7.6 79 1.7 NNE 7 11 4 6 1026.1 1026.1 0.0
26/10:00am 10.7 8.1 7.6 81 1.5 ENE 11 13 6 7 1026.0 1026.0 0.0
26/09:30am 10.4 7.0 7.5 82 1.4 E 15 19 8 10 1026.2 1026.2 0.0
26/09:00am 10.3 8.1 7.7 84 1.2 ENE 9 13 5 7 1026.3 1026.3 0.0
26/08:30am 10.2 6.0 7.3 82 1.4 E 19 24 10 13 1026.2 1026.2 -
26/08:00am 10.0 6.1 7.3 83 1.3 E 17 20 9 11 1026.1 1026.1 -
26/07:30am 10.0 5.8 7.3 83 1.3 E 19 24 10 13 1026.1 1026.1 -
26/07:00am 10.0 5.5 7.1 82 1.4 E 20 30 11 16 1025.8 1025.8 -
26/06:30am 9.9 5.4 7.0 82 1.4 E 20 26 11 14 1025.7 1025.7 -
26/06:00am 10.0 4.3 6.7 80 1.5 E 26 33 14 18 1025.6 1025.6 -
26/05:30am 9.9 5.3 6.6 80 1.5 ESE 20 30 11 16 1025.6 1025.6 -
26/05:00am 9.9 4.5 6.4 79 1.6 ESE 24 33 13 18 1025.6 1025.6 -
26/04:30am 9.8 4.4 6.3 79 1.6 E 24 30 13 16 1025.5 1025.5 -
26/04:00am 10.1 4.3 6.3 77 1.8 E 26 35 14 19 1025.5 1025.5 -
26/03:30am 10.3 5.3 6.3 76 1.9 E 22 30 12 16 1025.6 1025.6 -
26/03:00am 10.5 5.2 6.6 77 1.8 E 24 32 13 17 1025.9 1025.9 0.0
26/02:30am 10.6 6.1 6.9 78 1.8 ESE 20 26 11 14 1026.2 1026.2 -
26/02:00am 10.5 6.1 7.2 80 1.6 ESE 20 26 11 14 1026.5 1026.5 -
26/01:30am 10.5 5.6 7.0 79 1.7 ESE 22 28 12 15 1026.7 1026.7 -
26/01:00am 10.6 5.7 6.9 78 1.7 ESE 22 30 12 16 1026.8 1026.8 -
26/12:30am 10.3 5.8 6.8 79 1.6 SE 20 32 11 17 1026.8 1026.8 -
26/12:00am 10.3 5.4 7.0 80 1.5 SE 22 30 12 16 1026.9 1026.9 -
 
Date/Time
EST
Temp
°C
App
Temp
°C
Dew
Point
Rel
Hum
%
Delta-T
°C
Wind Press
QNH
hPa
Press
MSL
hPa
Rain
since 9 am
mm
Dir
 
Spd
km/h
Gust
km/h
Spd
kts
Gust
kts
25/11:30pm 10.2 5.3 7.1 81 1.5 SE 22 28 12 15 1027.0 1027.0 -
25/11:00pm 10.1 5.2 7.0 81 1.5 SSE 22 30 12 16 1027.2 1027.2 -
25/10:30pm 10.0 5.5 7.1 82 1.4 SSE 20 28 11 15 1027.4 1027.4 -
25/10:00pm 10.0 5.8 7.6 85 1.1 SE 19 24 10 13 1027.4 1027.4 -
25/09:30pm 9.2 5.3 7.0 86 1.0 SSE 17 20 9 11 1027.5 1027.5 -
25/09:00pm 10.2 5.9 8.0 86 1.1 SE 20 26 11 14 1027.5 1027.5 -
25/08:30pm 10.4 6.5 8.8 90 0.8 SSE 19 24 10 13 1027.5 1027.5 -
25/08:00pm 10.5 6.5 9.1 91 0.7 SSE 20 28 11 15 1027.3 1027.3 -
25/07:30pm 10.5 5.8 9.1 91 0.7 SSE 24 30 13 16 1026.9 1026.9 -
25/07:00pm 10.4 5.6 9.0 91 0.7 SSE 24 32 13 17 1026.9 1026.9 -
25/06:30pm 10.6 6.3 9.2 91 0.7 SSE 22 33 12 18 1026.7 1026.7 -
25/06:00pm 10.7 6.4 9.3 91 0.7 SSE 22 26 12 14 1026.6 1026.6 -
25/05:30pm 10.9 6.7 9.8 93 0.6 SSE 22 32 12 17 1026.4 1026.4 -
25/04:00pm 11.5 7.4 10.1 91 0.7 SSE 22 28 12 15 1025.9 1025.9 0.0
25/03:30pm 11.8 6.7 9.2 84 1.3 SSE 26 35 14 19 1025.9 1025.9 0.0

Other Formats:

Comma delimited format used in spreadsheet applications
http://www.bom.gov.au/fwo/IDV60801/IDV60801.94854.axf

JavaScript Object Notation format (JSON) in row-major order
http://www.bom.gov.au/fwo/IDV60801/IDV60801.94854.json